Time;durP1;ratioP1;P1;durP2;ratioP2;P2;SDS_P1;SDS_P2;PMS_P1;PMS_P2;Temp;Humidity;BMP_temperature;BMP_pressure;BME280_temperature;BME280_humidity;BME280_pressure;Samples;Min_cycle;Max_cycle;Signal;HPM_P1;HPM_P2
2021/10/05 00:01:00;;;;;;;9.57;3.08;;;;;;;;;;5031270;28;20021;-45
2021/10/05 00:03:25;;;;;;;5.05;3.35;;;;;;;;;;5031265;28;20037;-45
2021/10/05 00:05:52;;;;;;;5.15;3.75;;;;;;;;;;5031064;28;20036;-44
2021/10/05 00:08:18;;;;;;;6.22;3.47;;;;;;;;;;5031237;28;20050;-45
2021/10/05 00:10:43;;;;;;;4.80;3.72;;;;;;;;;;5031028;28;20142;-45
2021/10/05 00:13:09;;;;;;;4.75;3.05;;;;;;;;;;5031114;28;20029;-45
2021/10/05 00:15:34;;;;;;;10.20;4.63;;;;;;;;;;5031186;28;20018;-45
2021/10/05 00:18:00;;;;;;;7.72;4.32;;;;;;;;;;5031080;28;20029;-45
2021/10/05 00:20:25;;;;;;;5.88;4.05;;;;;;;;;;5031235;28;20382;-44
2021/10/05 00:22:51;;;;;;;5.32;3.75;;;;;;;;;;5031027;28;20060;-45
2021/10/05 00:25:16;;;;;;;5.35;3.17;;;;;;;;;;5031041;28;20061;-45
2021/10/05 00:27:41;;;;;;;6.32;3.72;;;;;;;;;;5031056;28;20029;-44
2021/10/05 00:30:07;;;;;;;6.63;3.45;;;;;;;;;;5031110;28;20026;-45
2021/10/05 00:32:33;;;;;;;5.88;4.10;;;;;;;;;;5031380;28;20387;-44
2021/10/05 00:34:58;;;;;;;4.60;2.95;;;;;;;;;;5030876;28;20029;-45
2021/10/05 00:37:24;;;;;;;6.47;3.45;;;;;;;;;;5030969;28;20095;-44
2021/10/05 00:39:49;;;;;;;9.38;4.03;;;;;;;;;;5031108;28;20061;-44
2021/10/05 00:42:14;;;;;;;6.55;3.47;;;;;;;;;;5030814;28;20032;-44
2021/10/05 00:44:40;;;;;;;4.63;3.53;;;;;;;;;;5030975;28;20091;-45
2021/10/05 00:47:08;;;;;;;6.90;3.10;;;;;;;;;;5030815;28;20030;-44
2021/10/05 00:49:34;;;;;;;8.90;3.35;;;;;;;;;;5030738;28;20063;-45
2021/10/05 00:52:01;;;;;;;6.88;3.65;;;;;;;;;;5031048;28;20119;-45
2021/10/05 00:54:27;;;;;;;5.90;3.65;;;;;;;;;;5030681;28;20029;-45
2021/10/05 00:56:52;;;;;;;6.10;3.17;;;;;;;;;;5030759;28;20103;-45
2021/10/05 00:59:18;;;;;;;6.85;3.20;;;;;;;;;;5030649;28;20033;-45
2021/10/05 01:01:43;;;;;;;6.80;3.75;;;;;;;;;;5030699;28;20037;-44
2021/10/05 01:04:08;;;;;;;5.70;3.08;;;;;;;;;;5033981;28;20025;-45
2021/10/05 01:06:34;;;;;;;4.43;3.35;;;;;;;;;;5034353;28;20061;-44
2021/10/05 01:08:59;;;;;;;3.97;3.05;;;;;;;;;;5034467;28;20067;-45
2021/10/05 01:11:25;;;;;;;5.88;3.35;;;;;;;;;;5034198;28;20369;-45
2021/10/05 01:13:50;;;;;;;3.60;3.00;;;;;;;;;;5034432;28;20095;-44
2021/10/05 01:16:19;;;;;;;6.03;3.35;;;;;;;;;;5034449;28;20030;-45
2021/10/05 01:18:48;;;;;;;6.60;4.38;;;;;;;;;;5032793;28;20031;-45
2021/10/05 01:21:13;;;;;;;5.50;4.03;;;;;;;;;;5034136;28;20030;-44
2021/10/05 01:23:39;;;;;;;6.38;3.28;;;;;;;;;;5034060;28;20029;-45
2021/10/05 01:26:04;;;;;;;8.60;4.65;;;;;;;;;;5033818;28;20044;-45
2021/10/05 01:28:31;;;;;;;3.97;2.85;;;;;;;;;;5033985;28;20013;-45
2021/10/05 01:30:57;;;;;;;6.07;3.05;;;;;;;;;;5033764;28;20025;-44
2021/10/05 01:33:24;;;;;;;5.70;4.40;;;;;;;;;;5034177;28;20030;-45
2021/10/05 01:35:50;;;;;;;6.35;4.25;;;;;;;;;;5033784;28;20396;-44
2021/10/05 01:38:15;;;;;;;4.53;3.33;;;;;;;;;;5033623;28;20017;-44
2021/10/05 01:40:41;;;;;;;7.55;3.00;;;;;;;;;;5033728;28;20128;-45
2021/10/05 01:43:06;;;;;;;4.65;3.30;;;;;;;;;;5033631;28;20358;-44
2021/10/05 01:45:32;;;;;;;4.22;3.13;;;;;;;;;;5033865;28;20025;-44
2021/10/05 01:47:57;;;;;;;13.68;4.22;;;;;;;;;;5033531;28;20026;-44
2021/10/05 01:50:23;;;;;;;3.95;3.20;;;;;;;;;;5033564;28;20047;-45
2021/10/05 01:52:49;;;;;;;4.80;2.65;;;;;;;;;;5033391;28;20021;-45
2021/10/05 01:55:16;;;;;;;7.10;3.67;;;;;;;;;;5033801;28;20437;-45
2021/10/05 01:57:42;;;;;;;7.40;4.32;;;;;;;;;;5033353;28;20112;-44
2021/10/05 02:00:08;;;;;;;5.55;3.55;;;;;;;;;;5033479;28;20124;-44
2021/10/05 02:02:33;;;;;;;9.80;3.80;;;;;;;;;;5033298;28;20018;-49
2021/10/05 02:04:59;;;;;;;5.72;3.55;;;;;;;;;;5033320;28;20036;-45
2021/10/05 02:07:24;;;;;;;5.15;3.17;;;;;;;;;;5033178;28;20013;-45
2021/10/05 02:09:49;;;;;;;7.00;3.75;;;;;;;;;;5032952;28;20048;-46
2021/10/05 02:12:16;;;;;;;10.00;3.70;;;;;;;;;;5032868;28;20029;-45
2021/10/05 02:14:45;;;;;;;4.45;3.08;;;;;;;;;;5031949;28;20044;-45
2021/10/05 02:17:11;;;;;;;6.80;3.58;;;;;;;;;;5031793;28;20049;-44
2021/10/05 02:19:37;;;;;;;5.32;3.20;;;;;;;;;;5033236;28;20038;-45
2021/10/05 02:22:03;;;;;;;8.63;3.60;;;;;;;;;;5032892;28;20025;-44
2021/10/05 02:26:56;;;;;;;11.88;4.15;;;;;;;;;;5032772;28;20045;-45
2021/10/05 02:29:22;;;;;;;5.68;3.08;;;;;;;;;;5032821;28;20488;-45
2021/10/05 02:31:47;;;;;;;7.70;3.65;;;;;;;;;;5032859;28;20049;-45
2021/10/05 02:34:13;;;;;;;4.90;2.92;;;;;;;;;;5032616;28;20120;-44
2021/10/05 02:36:39;;;;;;;10.77;3.42;;;;;;;;;;5032798;28;20021;-46
2021/10/05 02:39:05;;;;;;;10.45;3.40;;;;;;;;;;5032362;28;20041;-45
2021/10/05 02:41:31;;;;;;;5.85;2.92;;;;;;;;;;5032600;28;20017;-45
2021/10/05 02:43:56;;;;;;;6.45;3.30;;;;;;;;;;5032589;28;20061;-45
2021/10/05 02:46:21;;;;;;;5.32;3.15;;;;;;;;;;5032415;28;20376;-45
2021/10/05 02:48:47;;;;;;;4.70;3.25;;;;;;;;;;5032485;28;20057;-44
2021/10/05 02:51:13;;;;;;;5.60;3.20;;;;;;;;;;5032346;28;20096;-44
2021/10/05 02:53:38;;;;;;;5.43;2.85;;;;;;;;;;5032294;28;20056;-45
2021/10/05 02:56:04;;;;;;;13.07;3.58;;;;;;;;;;5032330;28;20056;-45
2021/10/05 02:58:30;;;;;;;4.75;3.38;;;;;;;;;;5032107;28;20060;-45
2021/10/05 03:00:55;;;;;;;6.20;3.13;;;;;;;;;;5032152;28;20026;-44
2021/10/05 03:03:21;;;;;;;6.28;3.15;;;;;;;;;;5032252;28;20036;-45
2021/10/05 03:05:46;;;;;;;9.52;3.47;;;;;;;;;;5032367;28;20033;-45
2021/10/05 03:08:12;;;;;;;17.25;3.63;;;;;;;;;;5031978;28;20492;-44
2021/10/05 03:10:37;;;;;;;3.35;2.53;;;;;;;;;;5031873;28;20048;-44
2021/10/05 03:13:03;;;;;;;6.55;3.05;;;;;;;;;;5030684;28;20086;-44
2021/10/05 03:15:29;;;;;;;5.22;2.80;;;;;;;;;;5031947;28;20072;-45
2021/10/05 03:17:54;;;;;;;4.07;3.15;;;;;;;;;;5031993;28;20049;-45
2021/10/05 03:20:20;;;;;;;7.55;3.22;;;;;;;;;;5032139;28;20391;-44
2021/10/05 03:22:45;;;;;;;4.78;3.13;;;;;;;;;;5031803;28;20144;-44
2021/10/05 03:25:11;;;;;;;7.80;3.42;;;;;;;;;;5031581;28;20017;-49
2021/10/05 03:27:36;;;;;;;12.75;2.58;;;;;;;;;;5031832;28;20496;-44
2021/10/05 03:30:03;;;;;;;3.97;3.08;;;;;;;;;;5031571;28;20026;-45
2021/10/05 03:32:28;;;;;;;7.50;3.13;;;;;;;;;;5031986;28;20034;-44
2021/10/05 03:34:54;;;;;;;4.78;3.42;;;;;;;;;;5031657;28;20476;-45
2021/10/05 03:37:19;;;;;;;5.32;3.28;;;;;;;;;;5030227;28;20389;-44
2021/10/05 03:39:44;;;;;;;4.18;2.90;;;;;;;;;;5031736;28;20033;-45
2021/10/05 03:42:10;;;;;;;6.45;3.53;;;;;;;;;;5031695;28;20025;-44
2021/10/05 03:44:35;;;;;;;5.25;3.42;;;;;;;;;;5031756;28;20419;-45
2021/10/05 03:47:01;;;;;;;5.20;3.20;;;;;;;;;;5031749;28;20025;-44
2021/10/05 03:49:26;;;;;;;5.13;3.67;;;;;;;;;;5031359;28;20014;-45
2021/10/05 03:51:52;;;;;;;4.30;3.15;;;;;;;;;;5031287;28;20037;-45
2021/10/05 03:54:17;;;;;;;5.72;3.53;;;;;;;;;;5031426;28;20013;-45
2021/10/05 03:56:43;;;;;;;5.00;3.50;;;;;;;;;;5031396;28;20112;-44
2021/10/05 03:59:09;;;;;;;5.28;3.70;;;;;;;;;;5031099;28;20535;-45
2021/10/05 04:01:35;;;;;;;5.22;3.40;;;;;;;;;;5031305;28;20041;-45
2021/10/05 04:04:00;;;;;;;4.90;2.97;;;;;;;;;;5031309;28;20026;-44
2021/10/05 04:06:26;;;;;;;4.88;3.50;;;;;;;;;;5031545;28;20029;-44
2021/10/05 04:08:51;;;;;;;10.77;2.95;;;;;;;;;;5031102;28;20022;-45
2021/10/05 04:11:17;;;;;;;4.53;3.28;;;;;;;;;;5031198;28;20077;-45
2021/10/05 04:13:43;;;;;;;3.95;2.75;;;;;;;;;;5031122;28;20056;-44
2021/10/05 04:16:08;;;;;;;4.57;3.08;;;;;;;;;;5031109;28;20058;-45
2021/10/05 04:18:34;;;;;;;5.20;3.47;;;;;;;;;;5031133;28;20049;-44
2021/10/05 04:20:59;;;;;;;9.38;3.78;;;;;;;;;;5030949;28;20048;-44
2021/10/05 04:23:25;;;;;;;4.07;2.83;;;;;;;;;;5031403;28;20018;-45
2021/10/05 04:25:51;;;;;;;4.90;3.03;;;;;;;;;;5031077;28;20037;-45
2021/10/05 04:28:16;;;;;;;5.45;3.05;;;;;;;;;;5031046;28;20399;-44
2021/10/05 04:30:42;;;;;;;6.40;3.05;;;;;;;;;;5031388;28;20040;-44
2021/10/05 04:33:08;;;;;;;9.38;3.97;;;;;;;;;;5030849;28;20044;-44
2021/10/05 04:35:33;;;;;;;5.00;2.97;;;;;;;;;;5031351;28;20268;-44
2021/10/05 04:37:58;;;;;;;5.00;3.22;;;;;;;;;;5032313;28;20021;-45
2021/10/05 04:40:24;;;;;;;5.30;3.40;;;;;;;;;;5034629;28;20050;-44
2021/10/05 04:42:50;;;;;;;5.65;2.67;;;;;;;;;;5034958;28;20017;-45
2021/10/05 04:45:16;;;;;;;4.57;3.20;;;;;;;;;;5034995;28;20136;-45
2021/10/05 04:47:41;;;;;;;5.50;3.30;;;;;;;;;;5035015;28;20097;-45
2021/10/05 04:50:08;;;;;;;8.80;3.88;;;;;;;;;;5034963;28;20071;-45
2021/10/05 04:52:34;;;;;;;4.00;3.17;;;;;;;;;;5034632;28;20105;-45
2021/10/05 04:55:01;;;;;;;5.30;3.72;;;;;;;;;;5033235;28;20464;-44
2021/10/05 04:57:26;;;;;;;5.60;3.25;;;;;;;;;;5034466;28;20017;-44
2021/10/05 04:59:52;;;;;;;4.68;3.50;;;;;;;;;;5034423;28;20099;-45
2021/10/05 05:02:18;;;;;;;5.35;3.28;;;;;;;;;;5034485;28;20013;-45
2021/10/05 05:04:44;;;;;;;11.65;3.85;;;;;;;;;;5034358;28;20707;-45
2021/10/05 05:07:09;;;;;;;5.63;3.20;;;;;;;;;;5034363;28;20100;-45
2021/10/05 05:09:35;;;;;;;10.23;3.72;;;;;;;;;;5034080;28;20074;-45
2021/10/05 05:12:00;;;;;;;4.18;3.22;;;;;;;;;;5034502;28;20041;-44
2021/10/05 05:14:26;;;;;;;6.45;3.38;;;;;;;;;;5034243;28;20500;-44
2021/10/05 05:16:51;;;;;;;8.70;3.72;;;;;;;;;;5034005;28;20032;-45
2021/10/05 05:19:17;;;;;;;7.57;3.63;;;;;;;;;;5034366;28;20142;-44
2021/10/05 05:21:42;;;;;;;4.82;3.42;;;;;;;;;;5034141;28;20599;-44
2021/10/05 05:24:08;;;;;;;4.60;3.22;;;;;;;;;;5049116;28;20033;-45
2021/10/05 05:26:33;;;;;;;7.63;3.13;;;;;;;;;;5033201;28;20056;-44
2021/10/05 05:28:59;;;;;;;5.40;3.45;;;;;;;;;;5033767;28;20107;-45
2021/10/05 05:31:24;;;;;;;4.72;3.38;;;;;;;;;;5033965;28;20018;-44
2021/10/05 05:33:50;;;;;;;5.38;3.50;;;;;;;;;;5033931;28;20049;-44
2021/10/05 05:36:15;;;;;;;5.63;3.58;;;;;;;;;;5033719;28;20022;-44
2021/10/05 05:38:41;;;;;;;4.45;2.95;;;;;;;;;;5033730;28;20033;-44
2021/10/05 05:41:07;;;;;;;5.40;3.17;;;;;;;;;;5033980;28;20476;-44
2021/10/05 05:43:32;;;;;;;5.05;3.28;;;;;;;;;;5033800;28;20369;-44
2021/10/05 05:45:58;;;;;;;5.13;3.67;;;;;;;;;;5033661;28;20021;-44
2021/10/05 05:48:23;;;;;;;5.18;3.38;;;;;;;;;;5033333;28;20072;-45
2021/10/05 05:50:49;;;;;;;5.57;3.60;;;;;;;;;;5049010;28;20076;-45
2021/10/05 05:53:14;;;;;;;5.85;3.78;;;;;;;;;;5033488;28;20036;-44
2021/10/05 05:55:40;;;;;;;6.47;3.35;;;;;;;;;;5033771;28;20380;-45
2021/10/05 05:58:13;;;;;;;6.50;3.80;;;;;;;;;;5033375;28;20029;-45
2021/10/05 06:00:39;;;;;;;5.57;3.50;;;;;;;;;;5033276;28;20582;-45
2021/10/05 06:03:04;;;;;;;5.97;3.80;;;;;;;;;;5033322;28;20443;-44
2021/10/05 06:05:30;;;;;;;7.70;4.22;;;;;;;;;;5033277;28;20029;-44
2021/10/05 06:07:56;;;;;;;6.32;3.10;;;;;;;;;;5033484;28;20021;-44
2021/10/05 06:10:21;;;;;;;4.80;3.55;;;;;;;;;;5033162;28;20050;-45
2021/10/05 06:12:47;;;;;;;4.18;2.78;;;;;;;;;;5033365;28;20026;-45
2021/10/05 06:15:14;;;;;;;5.45;3.30;;;;;;;;;;5031931;28;20068;-45
2021/10/05 06:17:41;;;;;;;6.00;4.10;;;;;;;;;;5033134;28;20029;-45
2021/10/05 06:20:11;;;;;;;5.35;3.60;;;;;;;;;;5032855;28;20499;-47
2021/10/05 06:22:36;;;;;;;6.53;4.43;;;;;;;;;;5048545;28;20068;-45
2021/10/05 06:25:07;;;;;;;5.40;3.85;;;;;;;;;;5033089;28;20053;-45
2021/10/05 06:27:32;;;;;;;6.57;3.70;;;;;;;;;;5033138;28;20031;-45
2021/10/05 06:30:00;;;;;;;4.68;3.58;;;;;;;;;;5032733;28;20413;-45
2021/10/05 06:32:26;;;;;;;6.70;3.97;;;;;;;;;;5032872;28;20026;-45
2021/10/05 06:34:52;;;;;;;6.10;3.38;;;;;;;;;;5031452;28;20171;-45
2021/10/05 06:37:18;;;;;;;6.65;3.65;;;;;;;;;;5032851;28;20511;-44
2021/10/05 06:39:44;;;;;;;6.15;3.65;;;;;;;;;;5032686;28;20064;-45
2021/10/05 06:42:09;;;;;;;7.07;4.22;;;;;;;;;;5032510;28;20070;-45
2021/10/05 06:44:35;;;;;;;5.57;3.78;;;;;;;;;;5032632;28;20045;-45
2021/10/05 06:47:00;;;;;;;5.85;4.75;;;;;;;;;;5032757;28;20033;-46
2021/10/05 06:49:26;;;;;;;6.22;4.22;;;;;;;;;;5032377;28;20619;-45
2021/10/05 06:51:52;;;;;;;5.38;3.53;;;;;;;;;;5032538;28;20044;-45
2021/10/05 06:54:17;;;;;;;5.57;3.35;;;;;;;;;;5032472;28;20036;-45
2021/10/05 06:56:43;;;;;;;6.38;3.63;;;;;;;;;;5032577;28;20033;-44
2021/10/05 06:59:08;;;;;;;5.88;3.75;;;;;;;;;;5032092;28;20038;-44
2021/10/05 07:01:33;;;;;;;4.70;3.47;;;;;;;;;;5031807;28;20038;-44
2021/10/05 07:03:59;;;;;;;5.15;3.20;;;;;;;;;;5032223;28;20013;-44
2021/10/05 07:06:25;;;;;;;5.00;3.78;;;;;;;;;;5032156;28;20551;-44
2021/10/05 07:08:50;;;;;;;6.38;4.53;;;;;;;;;;5032037;28;20022;-44
2021/10/05 07:11:16;;;;;;;5.40;3.85;;;;;;;;;;5031850;28;20068;-44
2021/10/05 07:13:43;;;;;;;7.88;3.75;;;;;;;;;;5032021;28;20040;-44
2021/10/05 07:16:09;;;;;;;4.78;3.60;;;;;;;;;;5032165;28;20057;-44
2021/10/05 07:18:35;;;;;;;5.20;3.65;;;;;;;;;;5032147;28;20472;-44
2021/10/05 07:21:02;;;;;;;5.68;3.38;;;;;;;;;;5031750;28;20034;-45
2021/10/05 07:23:27;;;;;;;7.25;4.20;;;;;;;;;;5031883;28;20033;-45
2021/10/05 07:25:53;;;;;;;5.30;3.55;;;;;;;;;;5031608;28;20029;-44
2021/10/05 07:28:18;;;;;;;8.15;3.58;;;;;;;;;;5031782;28;20048;-44
2021/10/05 07:30:46;;;;;;;6.95;3.50;;;;;;;;;;5031808;28;20076;-44
2021/10/05 07:33:11;;;;;;;5.30;3.70;;;;;;;;;;5031767;28;20056;-45
2021/10/05 07:35:37;;;;;;;6.07;3.70;;;;;;;;;;5032009;28;20029;-44
2021/10/05 07:38:06;;;;;;;5.00;3.55;;;;;;;;;;5031495;28;20029;-46
2021/10/05 07:40:32;;;;;;;7.40;3.80;;;;;;;;;;5031573;28;20041;-44
2021/10/05 07:42:58;;;;;;;7.28;3.90;;;;;;;;;;5031522;28;20028;-44
2021/10/05 07:45:25;;;;;;;6.07;3.70;;;;;;;;;;5031472;28;20033;-45
2021/10/05 07:47:51;;;;;;;6.13;4.10;;;;;;;;;;5031774;28;20372;-44
2021/10/05 07:50:17;;;;;;;5.50;4.22;;;;;;;;;;5031399;28;20034;-44
2021/10/05 07:52:43;;;;;;;6.65;3.85;;;;;;;;;;5031451;28;20567;-44
2021/10/05 07:55:09;;;;;;;4.90;3.92;;;;;;;;;;5031673;28;20130;-44
2021/10/05 07:57:35;;;;;;;6.18;3.65;;;;;;;;;;5031076;28;20025;-45
2021/10/05 08:00:01;;;;;;;10.65;4.60;;;;;;;;;;5031417;28;20041;-46
2021/10/05 08:02:26;;;;;;;7.28;4.55;;;;;;;;;;5031402;28;20422;-44
2021/10/05 08:04:53;;;;;;;8.48;3.92;;;;;;;;;;5046746;28;20022;-44
2021/10/05 08:07:20;;;;;;;7.93;3.72;;;;;;;;;;5031323;28;20052;-44
2021/10/05 08:09:48;;;;;;;7.28;3.53;;;;;;;;;;5031073;28;20038;-44
2021/10/05 08:12:14;;;;;;;4.93;4.05;;;;;;;;;;5033167;28;20369;-44
2021/10/05 08:14:39;;;;;;;7.82;4.28;;;;;;;;;;5035342;28;20033;-44
2021/10/05 08:17:05;;;;;;;5.32;3.67;;;;;;;;;;5035210;28;20010;-47
2021/10/05 08:19:31;;;;;;;7.40;4.63;;;;;;;;;;5035334;28;20045;-44
2021/10/05 08:21:56;;;;;;;5.70;4.40;;;;;;;;;;5034084;28;20028;-44
2021/10/05 08:24:25;;;;;;;5.55;3.92;;;;;;;;;;5035173;28;20377;-44
2021/10/05 08:26:51;;;;;;;5.88;4.07;;;;;;;;;;5035217;28;20024;-44
2021/10/05 08:29:18;;;;;;;6.40;4.63;;;;;;;;;;5034903;28;20029;-44
2021/10/05 08:31:44;;;;;;;8.43;3.92;;;;;;;;;;5033815;28;20025;-44
2021/10/05 08:34:10;;;;;;;9.40;3.95;;;;;;;;;;5033626;28;20091;-44
2021/10/05 08:36:36;;;;;;;6.40;4.35;;;;;;;;;;5034996;28;20013;-44
2021/10/05 08:39:02;;;;;;;7.72;4.53;;;;;;;;;;5034806;28;20040;-44
2021/10/05 08:41:27;;;;;;;6.93;4.28;;;;;;;;;;5034920;28;20025;-45
2021/10/05 08:43:53;;;;;;;13.52;4.30;;;;;;;;;;5034850;28;20033;-44
2021/10/05 08:46:18;;;;;;;5.35;4.07;;;;;;;;;;5034768;28;20022;-44
2021/10/05 08:48:44;;;;;;;6.53;4.95;;;;;;;;;;5034803;28;20480;-44
2021/10/05 08:51:09;;;;;;;8.25;4.82;;;;;;;;;;5034656;28;20040;-45
2021/10/05 08:53:39;;;;;;;8.07;5.20;;;;;;;;;;5034605;28;20026;-44
2021/10/05 08:56:06;;;;;;;9.15;4.18;;;;;;;;;;5034547;28;20116;-44
2021/10/05 08:58:31;;;;;;;10.15;4.00;;;;;;;;;;5034476;28;20358;-44
2021/10/05 09:01:05;;;;;;;11.75;5.28;;;;;;;;;;5034374;28;20032;-44
2021/10/05 09:03:30;;;;;;;9.90;5.07;;;;;;;;;;5034406;28;20036;-44
2021/10/05 09:05:56;;;;;;;7.82;4.38;;;;;;;;;;5034622;28;20025;-45
2021/10/05 09:08:22;;;;;;;9.57;4.88;;;;;;;;;;5034703;28;20029;-45
2021/10/05 09:10:51;;;;;;;13.48;5.40;;;;;;;;;;5034128;28;20111;-46
2021/10/05 09:13:28;;;;;;;8.48;5.13;;;;;;;;;;5034272;28;20487;-45
2021/10/05 09:15:53;;;;;;;9.98;4.82;;;;;;;;;;5034547;28;20044;-44
2021/10/05 09:18:19;;;;;;;7.97;4.75;;;;;;;;;;5034126;28;20013;-44
2021/10/05 09:20:44;;;;;;;6.90;4.82;;;;;;;;;;5034173;28;20041;-45
2021/10/05 09:23:14;;;;;;;7.82;5.40;;;;;;;;;;5033396;28;20353;-45
2021/10/05 09:25:43;;;;;;;6.75;4.07;;;;;;;;;;5034108;28;20034;-44
2021/10/05 09:28:23;;;;;;;11.40;5.47;;;;;;;;;;5033892;28;20021;-45
2021/10/05 09:31:15;;;;;;;7.45;4.50;;;;;;;;;;5032786;28;20033;-44
2021/10/05 09:33:41;;;;;;;6.82;4.25;;;;;;;;;;5033719;28;20065;-45
2021/10/05 09:36:07;;;;;;;9.57;4.55;;;;;;;;;;5033777;28;20017;-44
2021/10/05 09:38:32;;;;;;;9.52;5.35;;;;;;;;;;5033847;28;20034;-44
2021/10/05 09:41:01;;;;;;;9.18;4.68;;;;;;;;;;5033642;28;20039;-45
2021/10/05 09:43:27;;;;;;;8.95;4.53;;;;;;;;;;5033604;28;20576;-45
2021/10/05 09:45:53;;;;;;;6.85;4.57;;;;;;;;;;5034021;28;20116;-45
2021/10/05 09:48:18;;;;;;;10.98;5.13;;;;;;;;;;5033668;28;20021;-44
2021/10/05 09:50:44;;;;;;;11.68;4.72;;;;;;;;;;5034002;28;20030;-44
2021/10/05 09:53:16;;;;;;;8.43;4.63;;;;;;;;;;5033548;28;20484;-45
2021/10/05 09:55:47;;;;;;;8.80;5.07;;;;;;;;;;5033805;28;20117;-44
2021/10/05 09:58:15;;;;;;;6.60;4.38;;;;;;;;;;5033675;28;20040;-44
2021/10/05 10:00:50;;;;;;;9.55;4.82;;;;;;;;;;5033263;28;20062;-44
2021/10/05 10:03:16;;;;;;;8.98;4.85;;;;;;;;;;5048775;28;20045;-44
2021/10/05 10:05:44;;;;;;;12.32;5.30;;;;;;;;;;5033333;28;20476;-45
2021/10/05 10:08:09;;;;;;;9.32;4.78;;;;;;;;;;5033399;28;20029;-46
2021/10/05 10:10:36;;;;;;;6.18;4.07;;;;;;;;;;5033116;28;20048;-44
2021/10/05 10:13:06;;;;;;;8.23;5.07;;;;;;;;;;5033494;28;20137;-44
2021/10/05 10:15:38;;;;;;;9.60;5.03;;;;;;;;;;5033197;28;20068;-44
2021/10/05 10:18:11;;;;;;;6.20;4.22;;;;;;;;;;5033013;28;20057;-45
2021/10/05 10:20:38;;;;;;;8.27;4.22;;;;;;;;;;5033359;28;20691;-45
2021/10/05 10:23:18;;;;;;;6.20;4.15;;;;;;;;;;5032881;28;20064;-44
2021/10/05 10:25:51;;;;;;;8.38;4.30;;;;;;;;;;5033077;28;20042;-44
2021/10/05 10:28:17;;;;;;;7.93;4.45;;;;;;;;;;5032755;28;20514;-44
2021/10/05 10:30:50;;;;;;;11.73;4.75;;;;;;;;;;5032969;28;20017;-45
2021/10/05 10:33:15;;;;;;;;;;;;;;;;;;5033081;28;20030;-45
2021/10/05 10:36:07;;;;;;;11.18;4.07;;;;;;;;;;5031825;28;19950;-44
2021/10/05 10:38:35;;;;;;;7.72;3.92;;;;;;;;;;5032464;28;20507;-44
2021/10/05 10:41:12;;;;;;;9.25;3.88;;;;;;;;;;5032813;28;20052;-45
2021/10/05 10:43:37;;;;;;;4.13;2.97;;;;;;;;;;5032630;28;20468;-44
2021/10/05 10:46:03;;;;;;;6.63;3.70;;;;;;;;;;5032607;28;20037;-45
2021/10/05 10:48:32;;;;;;;8.82;3.70;;;;;;;;;;5032414;28;20025;-45
2021/10/05 10:51:00;;;;;;;5.82;3.35;;;;;;;;;;5031138;28;20021;-45
2021/10/05 10:53:36;;;;;;;6.07;3.63;;;;;;;;;;5032568;28;20385;-44
2021/10/05 10:56:02;;;;;;;7.35;3.78;;;;;;;;;;5032575;28;20354;-45
2021/10/05 10:58:40;;;;;;;9.73;3.33;;;;;;;;;;5032292;28;20105;-45
2021/10/05 11:01:09;;;;;;;7.20;3.08;;;;;;;;;;5032387;28;20060;-44
2021/10/05 11:03:34;;;;;;;7.60;3.08;;;;;;;;;;5032456;28;20021;-44
2021/10/05 11:06:00;;;;;;;5.20;2.58;;;;;;;;;;5032116;28;20026;-44
2021/10/05 11:08:25;;;;;;;5.30;2.75;;;;;;;;;;5032145;28;20093;-44
2021/10/05 11:10:51;;;;;;;3.88;2.47;;;;;;;;;;5031889;28;20057;-44
2021/10/05 11:13:17;;;;;;;6.07;2.75;;;;;;;;;;5031917;28;20388;-44
2021/10/05 11:15:47;;;;;;;4.07;1.80;;;;;;;;;;5032020;28;20048;-45
2021/10/05 11:18:19;;;;;;;9.05;2.08;;;;;;;;;;5031925;28;20041;-44
2021/10/05 11:20:47;;;;;;;10.63;2.08;;;;;;;;;;5031936;28;20156;-44
2021/10/05 11:23:16;;;;;;;9.77;1.80;;;;;;;;;;5031886;28;20053;-44
2021/10/05 11:25:49;;;;;;;7.80;2.10;;;;;;;;;;5032088;28;20026;-45
2021/10/05 11:28:15;;;;;;;4.32;1.90;;;;;;;;;;5031904;28;20033;-44
2021/10/05 11:30:52;;;;;;;1.83;1.40;;;;;;;;;;5031869;28;20059;-44
2021/10/05 11:33:29;;;;;;;4.90;1.70;;;;;;;;;;5031612;28;20057;-44
2021/10/05 11:35:56;;;;;;;12.18;1.85;;;;;;;;;;5030605;28;20043;-44
2021/10/05 11:38:21;;;;;;;4.32;2.15;;;;;;;;;;5031490;28;20031;-44
2021/10/05 11:40:51;;;;;;;5.70;1.48;;;;;;;;;;5031574;28;20041;-44
2021/10/05 11:43:16;;;;;;;7.60;2.15;;;;;;;;;;5031493;28;20026;-44
2021/10/05 11:45:42;;;;;;;3.17;1.08;;;;;;;;;;5031669;28;20763;-44
2021/10/05 11:48:07;;;;;;;7.25;1.67;;;;;;;;;;5031141;28;20021;-44
2021/10/05 11:50:33;;;;;;;2.80;1.23;;;;;;;;;;5030211;28;20072;-45
2021/10/05 11:52:58;;;;;;;6.38;2.08;;;;;;;;;;5031500;28;20017;-45
2021/10/05 11:55:24;;;;;;;4.72;1.13;;;;;;;;;;5031624;28;20048;-44
2021/10/05 11:57:54;;;;;;;1.85;1.13;;;;;;;;;;5030123;28;20044;-44
2021/10/05 12:00:19;;;;;;;4.65;1.02;;;;;;;;;;5031539;28;20040;-44
2021/10/05 12:02:44;;;;;;;3.00;1.45;;;;;;;;;;5031311;28;20025;-44
2021/10/05 12:05:24;;;;;;;3.65;1.08;;;;;;;;;;5031273;28;20029;-44
2021/10/05 12:07:50;;;;;;;4.50;1.00;;;;;;;;;;5031457;28;20022;-45
2021/10/05 12:10:16;;;;;;;5.28;1.77;;;;;;;;;;5031064;28;20458;-44
2021/10/05 12:12:41;;;;;;;8.10;1.73;;;;;;;;;;5031311;28;20138;-45
2021/10/05 12:15:08;;;;;;;2.88;1.10;;;;;;;;;;5031470;28;20064;-45
2021/10/05 12:17:34;;;;;;;2.80;0.80;;;;;;;;;;5031284;28;20025;-44
2021/10/05 12:20:06;;;;;;;4.57;1.30;;;;;;;;;;5031321;28;20537;-44
2021/10/05 12:22:34;;;;;;;2.33;1.25;;;;;;;;;;5031259;28;20076;-44
2021/10/05 12:25:06;;;;;;;2.22;1.35;;;;;;;;;;5030817;28;20478;-45
2021/10/05 12:27:35;;;;;;;;;;;;;;;;;;5031565;28;20025;-44
2021/10/05 12:30:00;;;;;;;3.85;1.05;;;;;;;;;;5030973;28;20272;-44
2021/10/05 12:32:40;;;;;;;2.75;1.00;;;;;;;;;;5031349;28;20030;-45
2021/10/05 12:35:25;;;;;;;7.38;1.33;;;;;;;;;;5030965;28;20049;-44
2021/10/05 12:38:02;;;;;;;9.27;1.00;;;;;;;;;;5029735;28;20104;-44
2021/10/05 12:40:39;;;;;;;4.10;0.77;;;;;;;;;;5030952;28;20037;-45
2021/10/05 12:43:04;;;;;;;2.72;1.25;;;;;;;;;;5031729;28;20048;-44
2021/10/05 12:45:30;;;;;;;3.85;2.10;;;;;;;;;;5030863;28;20475;-44
2021/10/05 12:47:58;;;;;;;3.30;1.25;;;;;;;;;;5030980;28;20036;-44
2021/10/05 12:50:24;;;;;;;5.10;0.90;;;;;;;;;;5030863;28;20018;-44
2021/10/05 12:52:57;;;;;;;4.57;2.10;;;;;;;;;;5031124;28;20076;-44
2021/10/05 12:55:26;;;;;;;5.90;1.40;;;;;;;;;;5030856;28;20486;-44
2021/10/05 12:57:53;;;;;;;2.08;1.15;;;;;;;;;;5030851;28;20075;-44
2021/10/05 13:00:19;;;;;;;1.48;0.93;;;;;;;;;;5034037;28;20037;-44
2021/10/05 13:02:45;;;;;;;1.73;1.00;;;;;;;;;;5034531;28;20027;-45
2021/10/05 13:05:10;;;;;;;8.95;1.23;;;;;;;;;;5034754;28;20074;-44
2021/10/05 13:07:36;;;;;;;3.63;1.08;;;;;;;;;;5034223;28;20020;-44
2021/10/05 13:10:02;;;;;;;2.85;1.33;;;;;;;;;;5034208;28;20046;-44
2021/10/05 13:12:27;;;;;;;4.32;1.13;;;;;;;;;;5034392;28;20044;-45
2021/10/05 13:14:53;;;;;;;6.68;0.93;;;;;;;;;;5034608;28;20043;-44
2021/10/05 13:17:18;;;;;;;9.88;1.65;;;;;;;;;;5034479;28;20483;-44
2021/10/05 13:19:44;;;;;;;3.15;1.02;;;;;;;;;;5034210;28;20037;-45
2021/10/05 13:22:09;;;;;;;3.05;1.10;;;;;;;;;;5034098;28;20064;-45
2021/10/05 13:24:35;;;;;;;2.35;1.02;;;;;;;;;;5034443;28;20025;-45
2021/10/05 13:27:00;;;;;;;1.13;0.93;;;;;;;;;;5033945;28;20454;-44
2021/10/05 13:29:26;;;;;;;2.80;1.30;;;;;;;;;;5034044;28;20036;-45
2021/10/05 13:31:52;;;;;;;3.15;1.35;;;;;;;;;;5034021;28;20025;-45
2021/10/05 13:34:20;;;;;;;4.20;1.25;;;;;;;;;;5033769;28;20021;-44
2021/10/05 13:36:45;;;;;;;4.63;1.25;;;;;;;;;;5033925;28;20021;-45
2021/10/05 13:39:11;;;;;;;5.95;0.88;;;;;;;;;;5033648;28;20074;-45
2021/10/05 13:41:39;;;;;;;5.65;1.00;;;;;;;;;;5033915;28;20029;-44
2021/10/05 13:44:05;;;;;;;5.97;1.20;;;;;;;;;;5033695;28;20392;-46
2021/10/05 13:46:30;;;;;;;3.33;1.52;;;;;;;;;;5032353;28;20052;-44
2021/10/05 13:48:56;;;;;;;3.58;1.08;;;;;;;;;;5033695;28;20033;-44
2021/10/05 13:51:22;;;;;;;5.72;1.60;;;;;;;;;;5033494;28;20022;-44
2021/10/05 13:53:47;;;;;;;4.05;1.38;;;;;;;;;;5033627;28;20025;-45
2021/10/05 13:56:13;;;;;;;3.38;1.08;;;;;;;;;;5033518;28;20025;-44
2021/10/05 13:58:39;;;;;;;3.28;1.25;;;;;;;;;;5033428;28;20067;-45
2021/10/05 14:01:04;;;;;;;2.90;1.30;;;;;;;;;;5033349;28;20720;-45
2021/10/05 14:03:30;;;;;;;5.85;1.45;;;;;;;;;;5032019;28;20517;-44
2021/10/05 14:05:56;;;;;;;1.90;0.90;;;;;;;;;;5033387;28;20108;-45
2021/10/05 14:08:21;;;;;;;5.47;1.70;;;;;;;;;;5033280;28;20028;-44
2021/10/05 14:10:47;;;;;;;2.42;0.90;;;;;;;;;;5032730;28;20096;-44
2021/10/05 14:13:13;;;;;;;4.35;1.10;;;;;;;;;;5033206;28;20037;-44
2021/10/05 14:15:38;;;;;;;3.88;1.75;;;;;;;;;;5033272;28;20396;-44
2021/10/05 14:18:06;;;;;;;7.25;1.95;;;;;;;;;;5032911;28;20025;-45
2021/10/05 14:20:32;;;;;;;0.90;0.73;;;;;;;;;;5033108;28;20075;-44
2021/10/05 14:22:58;;;;;;;7.55;1.60;;;;;;;;;;5032978;28;20491;-44
2021/10/05 14:25:24;;;;;;;9.68;0.82;;;;;;;;;;5032984;28;20101;-45
2021/10/05 14:27:50;;;;;;;2.72;1.17;;;;;;;;;;5032944;28;20388;-44
2021/10/05 14:30:16;;;;;;;1.75;1.13;;;;;;;;;;5032827;28;20021;-45
2021/10/05 14:32:42;;;;;;;3.47;1.60;;;;;;;;;;5033186;28;20437;-45
2021/10/05 14:35:08;;;;;;;4.97;1.40;;;;;;;;;;5031393;28;20060;-44
2021/10/05 14:37:34;;;;;;;4.30;0.95;;;;;;;;;;5032764;28;20121;-44
2021/10/05 14:40:00;;;;;;;2.75;0.93;;;;;;;;;;5032571;28;20021;-44
2021/10/05 14:42:26;;;;;;;4.43;1.10;;;;;;;;;;5032604;28;20067;-44